Main page
METAR-TAF:

METAR-TAF

Airports :

McAllen Miller International Airport

McAllen, Texas, United States

latitude: 26-10-47N, longitude: 098-14-40W, elevation: 105 ft

Current weather observation

The report was made 29 minutes ago, at 03:53 UTC
Wind 6 mph from the Northeast
Temperature 72°F
Humidity 38%
Pressure 29.87 in. Hg
Visibility: 10 miles
Clear sky

METAR: KMFE 250353Z 05005KT 10SM CLR 22/07 A2987 RMK AO2 SLP112 T02170072

Time: 22:22 (04:22 UTC)

Forecast

The report was made 5 hours and 2 minutes ago, at 23:20 UTC
Forecast valid from 25 at 00 UTC to 25 at 24 UTC
Wind 17 mph from the North/Northeast with gusts up to 23 mph
Visibility: 6 miles
Clear sky
From 25 at 0600 UTC
Wind 2 mph from variable directions
Visibility: 6 miles
Broken clouds at a height of 25000 ft
From 25 at 1500 UTC
Wind 9 mph from the South/Southeast
Visibility: 6 miles
Scattered clouds at a height of 5000 ft

TAF: KMFE 242320Z 2500/2524 02015G20KT P6SM SKC FM250600 VRB02KT P6SM BKN250 FM251500 16008KT P6SM SCT050

Weather observations and forecasts of more than 4000 airports (METAR and TAF reports).

The available stations are represented by yellow and red dots on the map.

Hover mouse over dot to see the name of the station.

Then click to see weather observations and forecasts.

To change the map : click on the green buttons with a black cross to zoom in, on the green button with a dash to zoom out, or on the green arrows for adjacent maps.


METAR-TAF: